Kezdőlap
METAR-TAF:

METAR-TAF

Repülőterek :

Wiscasset Airport

Wiscasset, Maine, Amerikai Egyesült Államok

földrajzi szélesség: 43-57-49N, földrajzi hosszúság: 069-42-42W, magasság: 20 m

Jelenlegi meteorológiai megfigyelések

A jelentés 9 perccel ezelõtt készült, 16:53 UTC
Déli szél 5 kt
Hőmérséklet 5°C
Páratartalom 52%
Légköri nyomás 1020 hPa
Látótávolság: 16.1 km
Derült ég

METAR: KIWI 231653Z AUTO 17005KT 10SM CLR 05/M04 A3011 RMK AO2 SLP196 T00501044

Idő: 12:02 (17:02 UTC)


TAF: hiányzik

Meteorológiai megfigyelések és előrejelzések több, mint 4000 repülőtéren (METAR és TAF jelentéseket).

A térképen piros és sárga pontok jelzik az elérhető meteorológiai állomásokat.

Mozgassa az egeret a pont fölött, hogy megjelenjen az állomás neve.

Azután kattintson az időjárási megfigyelések és előrejelzések megtekintéséhez.

A térkép megváltoztatása: kattintson a fekete keresztel jelölt zöld gombra ráközelítéshez, a vonallal jelölt zöld gombra távolításhoz, vagy a zöld nyilakra a szomszédos térképek eléréséhez.


METAR-TAF: